Eland, WI

7:05 AM CST on December 20, 2014 (GMT -0600)
Wittenberg Wi. | Change Station
CLOSE
Current Station
Personal Weather Station
Location: Wittenberg, WI
Elevation: 1191 ft
Nearby Weather Stations
Active Advisory: Special Statement

Elev 1191 ft 44.83 °N, 89.17 °W | Updated 6 seconds ago

Overcast
Overcast
24.1 °F
Feels Like 24 °F
N
0.0
Wind Variable Wind from SE
Gusts 0.0 mph

Today
High -- | Low -- °F
--% Chance of Precip.
Yesterday
High -- | Low -- °F
Precip. -- in
7:31 AM 4:18 PM
Waning Crescent, 3% visible
Pressure 30.27 in
Visibility 3.0 miles
Clouds Overcast 500 ft
Windchill 24 °F
Dew Point 20 °F
Humidity 84%
Rainfall 0.00 in
Snow Depth Not available.
UV 0.0 out of 12
Pollen .10 out of 12
Air Quality Not available.
Flu Activity Not available.
METAR KAUW 201254Z AUTO 16003KT 3SM BR OVC005 M04/M06 A3020 RMK AO2 SLP251 T10441056

More Conditions Fewer Conditions

Pressure 30.27 in
Visibility 3.0 miles
Clouds Overcast 500 ft
Windchill 24 °F
Dew Point 20 °F
Humidity 84%
Rainfall 0.00 in
Snow Depth Not available.
UV 0.0 out of 12
Pollen .10 out of 12
Air Quality Not available.
Flu Activity Not available.
METAR KAUW 201254Z AUTO 16003KT 3SM BR OVC005 M04/M06 A3020 RMK AO2 SLP251 T10441056

More Conditions Fewer Conditions

10-Day Weather Forecast

Almanac

Astronomy

Dec. 20, 2014 Rise Set
Actual Time
Civil Twilight
Nautical Twilight
Astronomical Twilight
Moon
Length of Visible Light
Length of Day
Tomorrow will be .
, % of the Moon is Illuminated

Today's Extremes

State Highs State Lows

Community

WunderPhotos

Upload Photos

1,779,167 photos uploaded!

WunderBlogs® & News

Nearby

Air Quality

  Air Quality AQ Index Pollutant
Not available.

Snow Depth

Station Depth Elevation

Earthquake Activity

City Distance Mag. Time & Date
Minimum magnitude displayed is 2.5.

Coastal Water Temperatures

Place Temperature

Nearby Weather Stations